sensor_id;sensor_type;location;lat;lon;timestamp;P1;durP1;ratioP1;P2;durP2;ratioP2
68192;SDS011;55012;47.562;18.414;2023-08-01T00:02:24;18.05;;;7.68;;
68192;SDS011;55012;47.562;18.414;2023-08-01T00:04:49;19.17;;;6.90;;
68192;SDS011;55012;47.562;18.414;2023-08-01T00:07:15;16.80;;;6.15;;
68192;SDS011;55012;47.562;18.414;2023-08-01T00:09:40;13.10;;;5.30;;
68192;SDS011;55012;47.562;18.414;2023-08-01T00:12:06;13.93;;;5.18;;
68192;SDS011;55012;47.562;18.414;2023-08-01T00:14:31;11.85;;;4.57;;
68192;SDS011;55012;47.562;18.414;2023-08-01T00:16:57;9.82;;;3.95;;
68192;SDS011;55012;47.562;18.414;2023-08-01T00:19:23;8.52;;;3.58;;
68192;SDS011;55012;47.562;18.414;2023-08-01T00:21:48;7.90;;;3.70;;
68192;SDS011;55012;47.562;18.414;2023-08-01T00:24:14;8.10;;;3.92;;
68192;SDS011;55012;47.562;18.414;2023-08-01T00:26:39;10.82;;;4.72;;
68192;SDS011;55012;47.562;18.414;2023-08-01T00:29:05;10.73;;;4.85;;
68192;SDS011;55012;47.562;18.414;2023-08-01T00:31:30;8.32;;;4.72;;
68192;SDS011;55012;47.562;18.414;2023-08-01T00:33:55;8.38;;;4.13;;
68192;SDS011;55012;47.562;18.414;2023-08-01T00:36:21;7.80;;;3.90;;
68192;SDS011;55012;47.562;18.414;2023-08-01T00:38:46;6.22;;;3.33;;
68192;SDS011;55012;47.562;18.414;2023-08-01T00:41:16;7.60;;;3.47;;
68192;SDS011;55012;47.562;18.414;2023-08-01T00:43:42;6.32;;;2.90;;
68192;SDS011;55012;47.562;18.414;2023-08-01T00:46:07;3.45;;;2.60;;
68192;SDS011;55012;47.562;18.414;2023-08-01T00:48:33;6.03;;;2.80;;
68192;SDS011;55012;47.562;18.414;2023-08-01T00:50:59;4.28;;;2.50;;
68192;SDS011;55012;47.562;18.414;2023-08-01T00:53:28;5.25;;;2.88;;
68192;SDS011;55012;47.562;18.414;2023-08-01T00:55:54;5.50;;;2.60;;
68192;SDS011;55012;47.562;18.414;2023-08-01T00:58:21;6.43;;;2.60;;
68192;SDS011;55012;47.562;18.414;2023-08-01T01:00:47;4.35;;;2.50;;
68192;SDS011;55012;47.562;18.414;2023-08-01T01:03:13;4.03;;;2.42;;
68192;SDS011;55012;47.562;18.414;2023-08-01T01:05:40;4.18;;;2.30;;
68192;SDS011;55012;47.562;18.414;2023-08-01T01:08:27;3.75;;;2.38;;
68192;SDS011;55012;47.562;18.414;2023-08-01T01:10:53;3.33;;;2.40;;
68192;SDS011;55012;47.562;18.414;2023-08-01T01:13:18;3.25;;;2.50;;
68192;SDS011;55012;47.562;18.414;2023-08-01T01:15:44;4.38;;;2.42;;
68192;SDS011;55012;47.562;18.414;2023-08-01T01:18:09;3.25;;;2.50;;
68192;SDS011;55012;47.562;18.414;2023-08-01T01:20:35;7.68;;;2.67;;
68192;SDS011;55012;47.562;18.414;2023-08-01T01:23:03;3.95;;;2.60;;
68192;SDS011;55012;47.562;18.414;2023-08-01T01:25:31;4.38;;;2.60;;
68192;SDS011;55012;47.562;18.414;2023-08-01T01:27:58;4.65;;;2.60;;
68192;SDS011;55012;47.562;18.414;2023-08-01T01:30:24;5.05;;;2.60;;
68192;SDS011;55012;47.562;18.414;2023-08-01T01:32:52;4.05;;;2.47;;
68192;SDS011;55012;47.562;18.414;2023-08-01T01:35:18;5.32;;;2.40;;
68192;SDS011;55012;47.562;18.414;2023-08-01T01:37:43;3.67;;;2.80;;
68192;SDS011;55012;47.562;18.414;2023-08-01T01:40:09;3.20;;;2.30;;
68192;SDS011;55012;47.562;18.414;2023-08-01T01:42:35;4.95;;;2.60;;
68192;SDS011;55012;47.562;18.414;2023-08-01T01:45:01;3.15;;;2.47;;
68192;SDS011;55012;47.562;18.414;2023-08-01T01:47:27;4.80;;;2.28;;
68192;SDS011;55012;47.562;18.414;2023-08-01T01:49:52;4.55;;;2.35;;
68192;SDS011;55012;47.562;18.414;2023-08-01T01:52:17;4.28;;;2.35;;
68192;SDS011;55012;47.562;18.414;2023-08-01T01:54:43;5.38;;;2.35;;
68192;SDS011;55012;47.562;18.414;2023-08-01T01:57:08;4.03;;;2.50;;
68192;SDS011;55012;47.562;18.414;2023-08-01T01:59:34;4.72;;;2.30;;
68192;SDS011;55012;47.562;18.414;2023-08-01T02:01:59;4.32;;;2.58;;
68192;SDS011;55012;47.562;18.414;2023-08-01T02:04:25;4.32;;;2.28;;
68192;SDS011;55012;47.562;18.414;2023-08-01T02:06:50;3.47;;;2.30;;
68192;SDS011;55012;47.562;18.414;2023-08-01T02:09:18;3.67;;;2.30;;
68192;SDS011;55012;47.562;18.414;2023-08-01T02:11:43;4.32;;;2.60;;
68192;SDS011;55012;47.562;18.414;2023-08-01T02:14:09;6.63;;;2.40;;
68192;SDS011;55012;47.562;18.414;2023-08-01T02:16:34;5.95;;;2.50;;
68192;SDS011;55012;47.562;18.414;2023-08-01T02:19:00;4.15;;;2.50;;
68192;SDS011;55012;47.562;18.414;2023-08-01T02:21:25;4.13;;;2.60;;
68192;SDS011;55012;47.562;18.414;2023-08-01T02:23:51;3.83;;;2.50;;
68192;SDS011;55012;47.562;18.414;2023-08-01T02:26:16;4.30;;;2.60;;
68192;SDS011;55012;47.562;18.414;2023-08-01T02:28:42;4.68;;;2.42;;
68192;SDS011;55012;47.562;18.414;2023-08-01T02:31:07;4.00;;;2.50;;
68192;SDS011;55012;47.562;18.414;2023-08-01T02:33:32;4.07;;;2.50;;
68192;SDS011;55012;47.562;18.414;2023-08-01T02:35:58;3.38;;;2.40;;
68192;SDS011;55012;47.562;18.414;2023-08-01T02:38:23;3.45;;;2.33;;
68192;SDS011;55012;47.562;18.414;2023-08-01T02:40:49;4.57;;;2.42;;
68192;SDS011;55012;47.562;18.414;2023-08-01T02:43:14;8.32;;;2.50;;
68192;SDS011;55012;47.562;18.414;2023-08-01T02:45:41;3.13;;;2.25;;
68192;SDS011;55012;47.562;18.414;2023-08-01T02:48:07;3.38;;;2.05;;
68192;SDS011;55012;47.562;18.414;2023-08-01T02:50:32;4.57;;;2.38;;
68192;SDS011;55012;47.562;18.414;2023-08-01T02:52:58;4.18;;;2.25;;
68192;SDS011;55012;47.562;18.414;2023-08-01T02:55:23;4.95;;;2.20;;
68192;SDS011;55012;47.562;18.414;2023-08-01T02:57:48;4.88;;;2.30;;
68192;SDS011;55012;47.562;18.414;2023-08-01T03:00:14;2.88;;;2.10;;
68192;SDS011;55012;47.562;18.414;2023-08-01T03:02:39;4.10;;;2.60;;
68192;SDS011;55012;47.562;18.414;2023-08-01T03:05:08;3.92;;;2.30;;
68192;SDS011;55012;47.562;18.414;2023-08-01T03:07:34;3.95;;;2.42;;
68192;SDS011;55012;47.562;18.414;2023-08-01T03:10:00;4.68;;;2.47;;
68192;SDS011;55012;47.562;18.414;2023-08-01T03:12:26;6.70;;;2.60;;
68192;SDS011;55012;47.562;18.414;2023-08-01T03:14:52;5.28;;;2.58;;
68192;SDS011;55012;47.562;18.414;2023-08-01T03:17:17;6.60;;;2.40;;
68192;SDS011;55012;47.562;18.414;2023-08-01T03:19:42;2.58;;;1.98;;
68192;SDS011;55012;47.562;18.414;2023-08-01T03:22:09;3.80;;;2.30;;
68192;SDS011;55012;47.562;18.414;2023-08-01T03:24:35;3.92;;;2.40;;
68192;SDS011;55012;47.562;18.414;2023-08-01T03:27:01;4.75;;;2.63;;
68192;SDS011;55012;47.562;18.414;2023-08-01T03:29:26;5.32;;;2.50;;
68192;SDS011;55012;47.562;18.414;2023-08-01T03:31:52;5.03;;;2.55;;
68192;SDS011;55012;47.562;18.414;2023-08-01T03:34:18;4.45;;;2.40;;
68192;SDS011;55012;47.562;18.414;2023-08-01T03:36:43;6.32;;;2.40;;
68192;SDS011;55012;47.562;18.414;2023-08-01T03:39:08;5.97;;;2.38;;
68192;SDS011;55012;47.562;18.414;2023-08-01T03:41:35;4.40;;;2.50;;
68192;SDS011;55012;47.562;18.414;2023-08-01T03:44:00;4.55;;;2.45;;
68192;SDS011;55012;47.562;18.414;2023-08-01T03:46:26;6.25;;;2.80;;
68192;SDS011;55012;47.562;18.414;2023-08-01T03:48:51;4.60;;;2.42;;
68192;SDS011;55012;47.562;18.414;2023-08-01T03:51:17;4.30;;;2.40;;
68192;SDS011;55012;47.562;18.414;2023-08-01T03:53:44;5.43;;;2.72;;
68192;SDS011;55012;47.562;18.414;2023-08-01T03:56:10;7.57;;;3.20;;
68192;SDS011;55012;47.562;18.414;2023-08-01T03:58:36;7.57;;;3.38;;
68192;SDS011;55012;47.562;18.414;2023-08-01T04:01:02;6.97;;;3.15;;
68192;SDS011;55012;47.562;18.414;2023-08-01T04:03:27;7.90;;;3.55;;
68192;SDS011;55012;47.562;18.414;2023-08-01T04:05:53;9.45;;;3.22;;
68192;SDS011;55012;47.562;18.414;2023-08-01T04:08:19;7.93;;;3.00;;
68192;SDS011;55012;47.562;18.414;2023-08-01T04:10:44;7.00;;;3.38;;
68192;SDS011;55012;47.562;18.414;2023-08-01T04:13:10;8.75;;;3.10;;
68192;SDS011;55012;47.562;18.414;2023-08-01T04:15:35;7.93;;;2.85;;
68192;SDS011;55012;47.562;18.414;2023-08-01T04:18:01;7.72;;;3.05;;
68192;SDS011;55012;47.562;18.414;2023-08-01T04:20:26;6.63;;;2.97;;
68192;SDS011;55012;47.562;18.414;2023-08-01T04:22:52;6.97;;;2.85;;
68192;SDS011;55012;47.562;18.414;2023-08-01T04:25:17;8.93;;;3.40;;
68192;SDS011;55012;47.562;18.414;2023-08-01T04:27:43;5.47;;;2.97;;
68192;SDS011;55012;47.562;18.414;2023-08-01T04:30:08;7.35;;;3.20;;
68192;SDS011;55012;47.562;18.414;2023-08-01T04:32:34;5.90;;;2.88;;
68192;SDS011;55012;47.562;18.414;2023-08-01T04:34:59;6.13;;;3.20;;
68192;SDS011;55012;47.562;18.414;2023-08-01T04:37:25;10.88;;;3.00;;
68192;SDS011;55012;47.562;18.414;2023-08-01T04:39:51;6.00;;;3.00;;
68192;SDS011;55012;47.562;18.414;2023-08-01T04:42:16;5.28;;;3.30;;
68192;SDS011;55012;47.562;18.414;2023-08-01T04:44:41;5.53;;;2.72;;
68192;SDS011;55012;47.562;18.414;2023-08-01T04:47:07;7.85;;;3.00;;
68192;SDS011;55012;47.562;18.414;2023-08-01T04:49:32;4.07;;;2.47;;
68192;SDS011;55012;47.562;18.414;2023-08-01T04:51:58;6.03;;;3.05;;
68192;SDS011;55012;47.562;18.414;2023-08-01T04:54:23;8.15;;;2.75;;
68192;SDS011;55012;47.562;18.414;2023-08-01T04:56:49;4.15;;;2.63;;
68192;SDS011;55012;47.562;18.414;2023-08-01T04:59:14;8.07;;;3.10;;
68192;SDS011;55012;47.562;18.414;2023-08-01T05:01:39;7.75;;;3.00;;
68192;SDS011;55012;47.562;18.414;2023-08-01T05:04:05;7.45;;;2.85;;
68192;SDS011;55012;47.562;18.414;2023-08-01T05:06:30;6.32;;;2.95;;
68192;SDS011;55012;47.562;18.414;2023-08-01T05:08:56;7.60;;;2.92;;
68192;SDS011;55012;47.562;18.414;2023-08-01T05:11:21;9.30;;;3.15;;
68192;SDS011;55012;47.562;18.414;2023-08-01T05:13:47;10.98;;;3.03;;
68192;SDS011;55012;47.562;18.414;2023-08-01T05:16:12;5.40;;;2.63;;
68192;SDS011;55012;47.562;18.414;2023-08-01T05:18:38;6.38;;;2.75;;
68192;SDS011;55012;47.562;18.414;2023-08-01T05:21:03;8.60;;;3.10;;
68192;SDS011;55012;47.562;18.414;2023-08-01T05:23:28;8.88;;;3.08;;
68192;SDS011;55012;47.562;18.414;2023-08-01T05:25:54;5.45;;;2.70;;
68192;SDS011;55012;47.562;18.414;2023-08-01T05:28:19;8.65;;;2.83;;
68192;SDS011;55012;47.562;18.414;2023-08-01T05:30:45;4.10;;;2.67;;
68192;SDS011;55012;47.562;18.414;2023-08-01T05:33:10;6.32;;;2.88;;
68192;SDS011;55012;47.562;18.414;2023-08-01T05:35:36;6.88;;;3.00;;
68192;SDS011;55012;47.562;18.414;2023-08-01T05:38:01;6.63;;;2.90;;
68192;SDS011;55012;47.562;18.414;2023-08-01T05:40:27;7.28;;;3.10;;
68192;SDS011;55012;47.562;18.414;2023-08-01T05:42:52;6.85;;;2.90;;
68192;SDS011;55012;47.562;18.414;2023-08-01T05:45:18;9.18;;;3.08;;
68192;SDS011;55012;47.562;18.414;2023-08-01T05:47:43;4.82;;;2.65;;
68192;SDS011;55012;47.562;18.414;2023-08-01T05:50:09;5.90;;;2.95;;
68192;SDS011;55012;47.562;18.414;2023-08-01T05:52:34;7.22;;;2.95;;
68192;SDS011;55012;47.562;18.414;2023-08-01T05:55:00;6.28;;;2.83;;
68192;SDS011;55012;47.562;18.414;2023-08-01T05:57:25;7.75;;;3.25;;
68192;SDS011;55012;47.562;18.414;2023-08-01T05:59:51;7.47;;;3.17;;
68192;SDS011;55012;47.562;18.414;2023-08-01T06:02:16;8.77;;;3.20;;
68192;SDS011;55012;47.562;18.414;2023-08-01T06:04:42;6.05;;;3.40;;
68192;SDS011;55012;47.562;18.414;2023-08-01T06:07:07;7.07;;;3.15;;
68192;SDS011;55012;47.562;18.414;2023-08-01T06:09:33;7.22;;;3.20;;
68192;SDS011;55012;47.562;18.414;2023-08-01T06:11:58;7.20;;;3.60;;
68192;SDS011;55012;47.562;18.414;2023-08-01T06:14:24;6.45;;;3.13;;
68192;SDS011;55012;47.562;18.414;2023-08-01T06:16:49;5.43;;;3.35;;
68192;SDS011;55012;47.562;18.414;2023-08-01T06:19:14;7.03;;;3.10;;
68192;SDS011;55012;47.562;18.414;2023-08-01T06:21:40;5.05;;;3.28;;
68192;SDS011;55012;47.562;18.414;2023-08-01T06:24:05;7.72;;;3.53;;
68192;SDS011;55012;47.562;18.414;2023-08-01T06:26:32;6.03;;;3.00;;
68192;SDS011;55012;47.562;18.414;2023-08-01T06:28:58;7.13;;;2.83;;
68192;SDS011;55012;47.562;18.414;2023-08-01T06:31:23;6.78;;;3.13;;
68192;SDS011;55012;47.562;18.414;2023-08-01T06:33:49;7.00;;;3.10;;
68192;SDS011;55012;47.562;18.414;2023-08-01T06:36:14;6.13;;;2.70;;
68192;SDS011;55012;47.562;18.414;2023-08-01T06:38:41;6.30;;;3.05;;
68192;SDS011;55012;47.562;18.414;2023-08-01T06:41:07;4.88;;;2.90;;
68192;SDS011;55012;47.562;18.414;2023-08-01T06:43:32;4.57;;;2.70;;
68192;SDS011;55012;47.562;18.414;2023-08-01T06:45:57;7.15;;;3.83;;
68192;SDS011;55012;47.562;18.414;2023-08-01T06:48:23;6.22;;;3.20;;
68192;SDS011;55012;47.562;18.414;2023-08-01T06:50:48;4.90;;;2.72;;
68192;SDS011;55012;47.562;18.414;2023-08-01T06:53:14;4.50;;;2.60;;
68192;SDS011;55012;47.562;18.414;2023-08-01T06:55:39;3.78;;;2.80;;
68192;SDS011;55012;47.562;18.414;2023-08-01T06:58:05;5.22;;;3.00;;
68192;SDS011;55012;47.562;18.414;2023-08-01T07:00:31;6.13;;;3.75;;
68192;SDS011;55012;47.562;18.414;2023-08-01T07:02:57;4.53;;;2.60;;
68192;SDS011;55012;47.562;18.414;2023-08-01T07:05:22;5.22;;;2.60;;
68192;SDS011;55012;47.562;18.414;2023-08-01T07:07:48;6.70;;;2.75;;
68192;SDS011;55012;47.562;18.414;2023-08-01T07:10:14;4.07;;;2.38;;
68192;SDS011;55012;47.562;18.414;2023-08-01T07:12:39;4.22;;;2.53;;
68192;SDS011;55012;47.562;18.414;2023-08-01T07:15:05;5.85;;;2.78;;
68192;SDS011;55012;47.562;18.414;2023-08-01T07:17:31;3.55;;;2.58;;
68192;SDS011;55012;47.562;18.414;2023-08-01T07:19:57;5.03;;;2.50;;
68192;SDS011;55012;47.562;18.414;2023-08-01T07:22:22;4.95;;;3.00;;
68192;SDS011;55012;47.562;18.414;2023-08-01T07:24:52;4.35;;;2.70;;
68192;SDS011;55012;47.562;18.414;2023-08-01T07:27:18;5.18;;;2.78;;
68192;SDS011;55012;47.562;18.414;2023-08-01T07:29:43;4.03;;;2.58;;
68192;SDS011;55012;47.562;18.414;2023-08-01T07:32:09;7.03;;;2.92;;
68192;SDS011;55012;47.562;18.414;2023-08-01T07:34:34;3.92;;;2.67;;
68192;SDS011;55012;47.562;18.414;2023-08-01T07:37:00;4.38;;;3.05;;
68192;SDS011;55012;47.562;18.414;2023-08-01T07:39:25;3.30;;;2.33;;
68192;SDS011;55012;47.562;18.414;2023-08-01T07:41:51;3.28;;;2.53;;
68192;SDS011;55012;47.562;18.414;2023-08-01T07:44:16;4.93;;;2.92;;
68192;SDS011;55012;47.562;18.414;2023-08-01T07:46:42;4.20;;;2.47;;
68192;SDS011;55012;47.562;18.414;2023-08-01T07:49:07;5.28;;;2.90;;
68192;SDS011;55012;47.562;18.414;2023-08-01T07:51:32;5.38;;;2.65;;
68192;SDS011;55012;47.562;18.414;2023-08-01T07:53:59;5.00;;;2.50;;
68192;SDS011;55012;47.562;18.414;2023-08-01T07:56:24;5.00;;;2.53;;
68192;SDS011;55012;47.562;18.414;2023-08-01T07:58:50;4.93;;;3.10;;
68192;SDS011;55012;47.562;18.414;2023-08-01T08:01:15;3.67;;;2.78;;
68192;SDS011;55012;47.562;18.414;2023-08-01T08:03:41;5.50;;;2.78;;
68192;SDS011;55012;47.562;18.414;2023-08-01T08:06:06;4.22;;;3.22;;
68192;SDS011;55012;47.562;18.414;2023-08-01T08:08:32;4.05;;;2.90;;
68192;SDS011;55012;47.562;18.414;2023-08-01T08:11:01;4.40;;;2.70;;
68192;SDS011;55012;47.562;18.414;2023-08-01T08:13:27;3.88;;;2.80;;
68192;SDS011;55012;47.562;18.414;2023-08-01T08:15:54;4.95;;;3.20;;
68192;SDS011;55012;47.562;18.414;2023-08-01T08:18:21;4.70;;;3.05;;
68192;SDS011;55012;47.562;18.414;2023-08-01T08:20:47;4.50;;;3.38;;
68192;SDS011;55012;47.562;18.414;2023-08-01T08:23:13;5.82;;;3.22;;
68192;SDS011;55012;47.562;18.414;2023-08-01T08:25:44;6.55;;;4.15;;
68192;SDS011;55012;47.562;18.414;2023-08-01T08:28:11;6.45;;;3.20;;
68192;SDS011;55012;47.562;18.414;2023-08-01T08:30:37;4.47;;;2.97;;
68192;SDS011;55012;47.562;18.414;2023-08-01T08:33:03;5.60;;;3.50;;
68192;SDS011;55012;47.562;18.414;2023-08-01T08:35:33;4.35;;;2.92;;
68192;SDS011;55012;47.562;18.414;2023-08-01T08:38:01;5.47;;;3.20;;
68192;SDS011;55012;47.562;18.414;2023-08-01T08:40:27;4.10;;;2.90;;
68192;SDS011;55012;47.562;18.414;2023-08-01T08:42:53;4.65;;;3.67;;
68192;SDS011;55012;47.562;18.414;2023-08-01T08:45:19;5.43;;;3.05;;
68192;SDS011;55012;47.562;18.414;2023-08-01T08:47:48;5.10;;;3.00;;
68192;SDS011;55012;47.562;18.414;2023-08-01T08:50:20;4.85;;;2.95;;
68192;SDS011;55012;47.562;18.414;2023-08-01T08:52:46;4.00;;;2.85;;
68192;SDS011;55012;47.562;18.414;2023-08-01T08:55:11;4.13;;;3.20;;
68192;SDS011;55012;47.562;18.414;2023-08-01T08:57:38;4.30;;;3.42;;
68192;SDS011;55012;47.562;18.414;2023-08-01T09:00:05;4.28;;;3.00;;
68192;SDS011;55012;47.562;18.414;2023-08-01T09:02:32;5.93;;;3.30;;
68192;SDS011;55012;47.562;18.414;2023-08-01T09:04:58;4.65;;;3.00;;
68192;SDS011;55012;47.562;18.414;2023-08-01T09:07:24;4.47;;;3.20;;
68192;SDS011;55012;47.562;18.414;2023-08-01T09:09:54;4.78;;;3.25;;
68192;SDS011;55012;47.562;18.414;2023-08-01T09:12:20;4.95;;;3.00;;
68192;SDS011;55012;47.562;18.414;2023-08-01T09:14:46;3.92;;;2.88;;
68192;SDS011;55012;47.562;18.414;2023-08-01T09:17:15;5.05;;;3.08;;
68192;SDS011;55012;47.562;18.414;2023-08-01T09:19:43;5.85;;;3.10;;
68192;SDS011;55012;47.562;18.414;2023-08-01T09:22:12;4.30;;;2.97;;
68192;SDS011;55012;47.562;18.414;2023-08-01T09:24:38;4.55;;;3.00;;
68192;SDS011;55012;47.562;18.414;2023-08-01T09:27:04;5.53;;;3.13;;
68192;SDS011;55012;47.562;18.414;2023-08-01T09:29:30;4.30;;;2.92;;
68192;SDS011;55012;47.562;18.414;2023-08-01T09:31:57;4.40;;;3.10;;
68192;SDS011;55012;47.562;18.414;2023-08-01T09:34:27;6.32;;;3.30;;
68192;SDS011;55012;47.562;18.414;2023-08-01T09:36:59;6.80;;;2.90;;
68192;SDS011;55012;47.562;18.414;2023-08-01T09:39:25;4.35;;;2.92;;
68192;SDS011;55012;47.562;18.414;2023-08-01T09:41:57;4.97;;;2.90;;
68192;SDS011;55012;47.562;18.414;2023-08-01T09:44:24;5.93;;;2.92;;
68192;SDS011;55012;47.562;18.414;2023-08-01T09:47:04;7.32;;;4.72;;
68192;SDS011;55012;47.562;18.414;2023-08-01T09:49:33;4.72;;;3.00;;
68192;SDS011;55012;47.562;18.414;2023-08-01T09:51:59;3.80;;;2.83;;
68192;SDS011;55012;47.562;18.414;2023-08-01T09:54:26;6.30;;;2.72;;
68192;SDS011;55012;47.562;18.414;2023-08-01T09:56:54;6.57;;;3.08;;
68192;SDS011;55012;47.562;18.414;2023-08-01T09:59:22;5.57;;;2.88;;
68192;SDS011;55012;47.562;18.414;2023-08-01T10:01:49;6.90;;;2.78;;
68192;SDS011;55012;47.562;18.414;2023-08-01T10:04:17;5.82;;;3.08;;
68192;SDS011;55012;47.562;18.414;2023-08-01T10:06:46;6.18;;;2.83;;
68192;SDS011;55012;47.562;18.414;2023-08-01T10:09:15;4.80;;;2.70;;
68192;SDS011;55012;47.562;18.414;2023-08-01T10:11:42;4.75;;;3.10;;
68192;SDS011;55012;47.562;18.414;2023-08-01T10:14:09;5.78;;;2.75;;
68192;SDS011;55012;47.562;18.414;2023-08-01T10:16:34;4.28;;;2.80;;
68192;SDS011;55012;47.562;18.414;2023-08-01T10:19:02;4.38;;;2.60;;
68192;SDS011;55012;47.562;18.414;2023-08-01T10:21:30;5.43;;;2.85;;
68192;SDS011;55012;47.562;18.414;2023-08-01T10:23:55;3.83;;;2.70;;
68192;SDS011;55012;47.562;18.414;2023-08-01T10:26:24;3.90;;;2.90;;
68192;SDS011;55012;47.562;18.414;2023-08-01T10:28:50;3.97;;;2.65;;
68192;SDS011;55012;47.562;18.414;2023-08-01T10:31:17;4.00;;;2.90;;
68192;SDS011;55012;47.562;18.414;2023-08-01T10:33:46;4.22;;;2.70;;
68192;SDS011;55012;47.562;18.414;2023-08-01T10:38:48;3.72;;;2.80;;
68192;SDS011;55012;47.562;18.414;2023-08-01T10:46:58;5.05;;;2.80;;
68192;SDS011;55012;47.562;18.414;2023-08-01T10:52:15;4.95;;;2.80;;
68192;SDS011;55012;47.562;18.414;2023-08-01T10:54:56;5.72;;;2.92;;
68192;SDS011;55012;47.562;18.414;2023-08-01T10:57:27;5.05;;;2.70;;
68192;SDS011;55012;47.562;18.414;2023-08-01T10:59:54;6.18;;;2.90;;
68192;SDS011;55012;47.562;18.414;2023-08-01T11:02:22;5.20;;;2.75;;
68192;SDS011;55012;47.562;18.414;2023-08-01T11:05:05;5.00;;;2.70;;
68192;SDS011;55012;47.562;18.414;2023-08-01T11:07:32;3.72;;;2.90;;
68192;SDS011;55012;47.562;18.414;2023-08-01T11:10:08;5.65;;;2.80;;
68192;SDS011;55012;47.562;18.414;2023-08-01T11:15:06;3.50;;;2.60;;
68192;SDS011;55012;47.562;18.414;2023-08-01T11:17:33;5.95;;;2.78;;
68192;SDS011;55012;47.562;18.414;2023-08-01T11:20:18;4.47;;;2.90;;
68192;SDS011;55012;47.562;18.414;2023-08-01T11:22:58;4.20;;;2.75;;
68192;SDS011;55012;47.562;18.414;2023-08-01T11:28:01;4.30;;;2.80;;
68192;SDS011;55012;47.562;18.414;2023-08-01T11:30:31;5.55;;;4.13;;
68192;SDS011;55012;47.562;18.414;2023-08-01T11:33:00;6.50;;;2.88;;
68192;SDS011;55012;47.562;18.414;2023-08-01T11:35:27;4.63;;;3.10;;
68192;SDS011;55012;47.562;18.414;2023-08-01T11:37:55;4.28;;;2.78;;
68192;SDS011;55012;47.562;18.414;2023-08-01T11:40:21;4.75;;;2.53;;
68192;SDS011;55012;47.562;18.414;2023-08-01T11:42:48;3.63;;;2.72;;
68192;SDS011;55012;47.562;18.414;2023-08-01T11:45:16;3.00;;;2.70;;
68192;SDS011;55012;47.562;18.414;2023-08-01T11:47:45;6.45;;;2.78;;
68192;SDS011;55012;47.562;18.414;2023-08-01T11:50:11;4.25;;;3.00;;
68192;SDS011;55012;47.562;18.414;2023-08-01T11:52:37;5.15;;;2.65;;
68192;SDS011;55012;47.562;18.414;2023-08-01T11:55:02;4.15;;;2.83;;
68192;SDS011;55012;47.562;18.414;2023-08-01T11:57:28;5.88;;;2.78;;
68192;SDS011;55012;47.562;18.414;2023-08-01T11:59:54;3.80;;;2.60;;
68192;SDS011;55012;47.562;18.414;2023-08-01T12:02:24;4.28;;;2.60;;
68192;SDS011;55012;47.562;18.414;2023-08-01T12:04:50;6.25;;;3.40;;
68192;SDS011;55012;47.562;18.414;2023-08-01T12:07:17;5.13;;;2.70;;
68192;SDS011;55012;47.562;18.414;2023-08-01T12:09:43;7.97;;;2.70;;
68192;SDS011;55012;47.562;18.414;2023-08-01T12:12:29;5.68;;;2.67;;
68192;SDS011;55012;47.562;18.414;2023-08-01T12:14:54;4.22;;;2.80;;
68192;SDS011;55012;47.562;18.414;2023-08-01T12:17:20;3.83;;;2.67;;
68192;SDS011;55012;47.562;18.414;2023-08-01T12:19:47;4.22;;;2.90;;
68192;SDS011;55012;47.562;18.414;2023-08-01T12:22:13;3.60;;;2.70;;
68192;SDS011;55012;47.562;18.414;2023-08-01T12:24:39;4.82;;;2.85;;
68192;SDS011;55012;47.562;18.414;2023-08-01T12:27:06;3.97;;;2.60;;
68192;SDS011;55012;47.562;18.414;2023-08-01T12:29:32;5.43;;;3.17;;
68192;SDS011;55012;47.562;18.414;2023-08-01T12:31:57;4.70;;;2.70;;
68192;SDS011;55012;47.562;18.414;2023-08-01T12:34:23;6.05;;;2.90;;
68192;SDS011;55012;47.562;18.414;2023-08-01T12:36:48;4.13;;;2.78;;
68192;SDS011;55012;47.562;18.414;2023-08-01T12:39:14;3.60;;;2.78;;
68192;SDS011;55012;47.562;18.414;2023-08-01T12:41:39;3.83;;;2.60;;
68192;SDS011;55012;47.562;18.414;2023-08-01T12:44:05;4.65;;;2.83;;
68192;SDS011;55012;47.562;18.414;2023-08-01T12:46:30;3.92;;;2.78;;
68192;SDS011;55012;47.562;18.414;2023-08-01T12:48:56;4.00;;;2.72;;
68192;SDS011;55012;47.562;18.414;2023-08-01T12:51:21;6.65;;;3.38;;
68192;SDS011;55012;47.562;18.414;2023-08-01T12:53:47;6.75;;;3.20;;
68192;SDS011;55012;47.562;18.414;2023-08-01T12:56:12;3.35;;;2.70;;
68192;SDS011;55012;47.562;18.414;2023-08-01T12:58:38;3.92;;;2.70;;
68192;SDS011;55012;47.562;18.414;2023-08-01T13:01:03;4.10;;;3.00;;
68192;SDS011;55012;47.562;18.414;2023-08-01T13:03:29;5.18;;;3.03;;
68192;SDS011;55012;47.562;18.414;2023-08-01T13:05:54;4.40;;;2.80;;
68192;SDS011;55012;47.562;18.414;2023-08-01T13:08:22;4.43;;;2.60;;
68192;SDS011;55012;47.562;18.414;2023-08-01T13:10:48;5.10;;;3.10;;
68192;SDS011;55012;47.562;18.414;2023-08-01T13:13:14;3.92;;;2.80;;
68192;SDS011;55012;47.562;18.414;2023-08-01T13:15:43;4.25;;;2.58;;
68192;SDS011;55012;47.562;18.414;2023-08-01T13:18:09;4.28;;;2.70;;
68192;SDS011;55012;47.562;18.414;2023-08-01T13:20:35;5.72;;;3.00;;
68192;SDS011;55012;47.562;18.414;2023-08-01T13:23:01;4.18;;;2.80;;
68192;SDS011;55012;47.562;18.414;2023-08-01T13:25:27;4.80;;;3.00;;
68192;SDS011;55012;47.562;18.414;2023-08-01T13:27:53;4.85;;;3.08;;
68192;SDS011;55012;47.562;18.414;2023-08-01T13:30:18;4.35;;;2.70;;
68192;SDS011;55012;47.562;18.414;2023-08-01T13:32:44;3.78;;;2.70;;
68192;SDS011;55012;47.562;18.414;2023-08-01T13:35:13;3.08;;;2.65;;
68192;SDS011;55012;47.562;18.414;2023-08-01T13:37:39;6.57;;;2.80;;
68192;SDS011;55012;47.562;18.414;2023-08-01T13:40:05;5.32;;;2.90;;
68192;SDS011;55012;47.562;18.414;2023-08-01T13:42:31;3.30;;;2.80;;
68192;SDS011;55012;47.562;18.414;2023-08-01T13:44:57;4.88;;;2.70;;
68192;SDS011;55012;47.562;18.414;2023-08-01T13:47:22;3.50;;;2.80;;
68192;SDS011;55012;47.562;18.414;2023-08-01T13:49:48;3.22;;;2.70;;
68192;SDS011;55012;47.562;18.414;2023-08-01T13:52:14;3.42;;;2.70;;
68192;SDS011;55012;47.562;18.414;2023-08-01T13:54:39;4.45;;;2.88;;
68192;SDS011;55012;47.562;18.414;2023-08-01T13:57:05;3.65;;;2.88;;
68192;SDS011;55012;47.562;18.414;2023-08-01T13:59:31;4.22;;;2.80;;
68192;SDS011;55012;47.562;18.414;2023-08-01T14:01:56;3.42;;;2.90;;
68192;SDS011;55012;47.562;18.414;2023-08-01T14:04:22;4.13;;;2.80;;
68192;SDS011;55012;47.562;18.414;2023-08-01T14:06:47;4.28;;;2.80;;
68192;SDS011;55012;47.562;18.414;2023-08-01T14:09:13;4.75;;;2.80;;
68192;SDS011;55012;47.562;18.414;2023-08-01T14:11:39;4.88;;;2.80;;
68192;SDS011;55012;47.562;18.414;2023-08-01T14:14:05;6.72;;;3.15;;
68192;SDS011;55012;47.562;18.414;2023-08-01T14:16:30;12.40;;;3.15;;
68192;SDS011;55012;47.562;18.414;2023-08-01T14:18:56;5.00;;;2.83;;
68192;SDS011;55012;47.562;18.414;2023-08-01T14:21:22;6.50;;;2.90;;
68192;SDS011;55012;47.562;18.414;2023-08-01T14:23:47;9.07;;;2.80;;
68192;SDS011;55012;47.562;18.414;2023-08-01T14:26:13;6.07;;;2.83;;
68192;SDS011;55012;47.562;18.414;2023-08-01T14:28:39;6.88;;;2.63;;
68192;SDS011;55012;47.562;18.414;2023-08-01T14:31:04;5.35;;;2.90;;
68192;SDS011;55012;47.562;18.414;2023-08-01T14:33:30;4.22;;;3.13;;
68192;SDS011;55012;47.562;18.414;2023-08-01T14:35:56;5.82;;;2.97;;
68192;SDS011;55012;47.562;18.414;2023-08-01T14:38:22;8.82;;;2.70;;
68192;SDS011;55012;47.562;18.414;2023-08-01T14:40:48;7.05;;;3.13;;
68192;SDS011;55012;47.562;18.414;2023-08-01T14:43:13;4.70;;;2.88;;
68192;SDS011;55012;47.562;18.414;2023-08-01T14:45:39;9.80;;;3.58;;